sensor_id;sensor_type;location;lat;lon;timestamp;temperature;humidity
63299;DHT22;54535;52.138;5.398;2022-08-19T00:01:22;21.20;94.60
63299;DHT22;54535;52.138;5.398;2022-08-19T00:03:57;21.10;94.50
63299;DHT22;54535;52.138;5.398;2022-08-19T00:06:24;21.10;94.60
63299;DHT22;54535;52.138;5.398;2022-08-19T00:08:51;21.10;94.50
63299;DHT22;54535;52.138;5.398;2022-08-19T00:11:17;21.10;94.60
63299;DHT22;54535;52.138;5.398;2022-08-19T00:13:52;21.10;94.70
63299;DHT22;54535;52.138;5.398;2022-08-19T00:16:18;21.10;94.70
63299;DHT22;54535;52.138;5.398;2022-08-19T00:18:51;21.00;94.60
63299;DHT22;54535;52.138;5.398;2022-08-19T00:21:18;21.00;94.60
63299;DHT22;54535;52.138;5.398;2022-08-19T00:23:45;21.00;94.70
63299;DHT22;54535;52.138;5.398;2022-08-19T00:26:12;20.90;94.60
63299;DHT22;54535;52.138;5.398;2022-08-19T00:28:39;20.90;94.60
63299;DHT22;54535;52.138;5.398;2022-08-19T00:31:06;20.90;94.60
63299;DHT22;54535;52.138;5.398;2022-08-19T00:33:33;20.90;94.60
63299;DHT22;54535;52.138;5.398;2022-08-19T00:36:00;20.90;94.60
63299;DHT22;54535;52.138;5.398;2022-08-19T00:38:27;20.80;94.70
63299;DHT22;54535;52.138;5.398;2022-08-19T00:41:04;20.80;94.70
63299;DHT22;54535;52.138;5.398;2022-08-19T00:43:31;20.80;94.70
63299;DHT22;54535;52.138;5.398;2022-08-19T00:45:58;20.80;94.80
63299;DHT22;54535;52.138;5.398;2022-08-19T00:48:25;20.80;94.80
63299;DHT22;54535;52.138;5.398;2022-08-19T00:50:52;20.70;94.80
63299;DHT22;54535;52.138;5.398;2022-08-19T00:53:21;20.70;94.80
63299;DHT22;54535;52.138;5.398;2022-08-19T00:55:49;20.70;94.80
63299;DHT22;54535;52.138;5.398;2022-08-19T00:58:19;20.70;94.90
63299;DHT22;54535;52.138;5.398;2022-08-19T01:00:47;20.70;94.80
63299;DHT22;54535;52.138;5.398;2022-08-19T01:03:15;20.70;94.90
63299;DHT22;54535;52.138;5.398;2022-08-19T01:05:45;20.70;94.90
63299;DHT22;54535;52.138;5.398;2022-08-19T01:08:13;20.60;95.00
63299;DHT22;54535;52.138;5.398;2022-08-19T01:10:43;20.60;95.00
63299;DHT22;54535;52.138;5.398;2022-08-19T01:13:11;20.60;95.00
63299;DHT22;54535;52.138;5.398;2022-08-19T01:15:40;20.60;95.00
63299;DHT22;54535;52.138;5.398;2022-08-19T01:18:09;20.50;95.10
63299;DHT22;54535;52.138;5.398;2022-08-19T01:20:37;20.60;95.20
63299;DHT22;54535;52.138;5.398;2022-08-19T01:23:03;20.50;95.10
63299;DHT22;54535;52.138;5.398;2022-08-19T01:25:33;20.50;95.10
63299;DHT22;54535;52.138;5.398;2022-08-19T01:28:03;20.50;95.20
63299;DHT22;54535;52.138;5.398;2022-08-19T01:30:36;20.50;95.20
63299;DHT22;54535;52.138;5.398;2022-08-19T01:33:03;20.50;95.20
63299;DHT22;54535;52.138;5.398;2022-08-19T01:35:32;20.50;95.20
63299;DHT22;54535;52.138;5.398;2022-08-19T01:38:00;20.40;95.20
63299;DHT22;54535;52.138;5.398;2022-08-19T01:40:29;20.40;95.30
63299;DHT22;54535;52.138;5.398;2022-08-19T01:42:57;20.40;95.40
63299;DHT22;54535;52.138;5.398;2022-08-19T01:45:25;20.40;95.30
63299;DHT22;54535;52.138;5.398;2022-08-19T01:47:52;20.40;95.30
63299;DHT22;54535;52.138;5.398;2022-08-19T01:50:28;20.30;95.40
63299;DHT22;54535;52.138;5.398;2022-08-19T01:52:55;20.30;95.30
63299;DHT22;54535;52.138;5.398;2022-08-19T01:55:32;20.30;95.30
63299;DHT22;54535;52.138;5.398;2022-08-19T01:58:00;20.30;95.30
63299;DHT22;54535;52.138;5.398;2022-08-19T02:00:29;20.20;95.30
63299;DHT22;54535;52.138;5.398;2022-08-19T02:02:56;20.10;95.40
63299;DHT22;54535;52.138;5.398;2022-08-19T02:05:23;20.20;95.40
63299;DHT22;54535;52.138;5.398;2022-08-19T02:07:50;20.10;95.40
63299;DHT22;54535;52.138;5.398;2022-08-19T02:10:19;20.10;95.40
63299;DHT22;54535;52.138;5.398;2022-08-19T02:12:46;20.10;95.40
63299;DHT22;54535;52.138;5.398;2022-08-19T02:15:13;20.10;95.40
63299;DHT22;54535;52.138;5.398;2022-08-19T02:17:39;20.10;95.40
63299;DHT22;54535;52.138;5.398;2022-08-19T02:20:06;20.10;95.40
63299;DHT22;54535;52.138;5.398;2022-08-19T02:22:34;20.00;95.30
63299;DHT22;54535;52.138;5.398;2022-08-19T02:25:01;20.00;95.30
63299;DHT22;54535;52.138;5.398;2022-08-19T02:27:28;20.00;95.30
63299;DHT22;54535;52.138;5.398;2022-08-19T02:29:56;20.00;95.30
63299;DHT22;54535;52.138;5.398;2022-08-19T02:32:22;20.00;95.40
63299;DHT22;54535;52.138;5.398;2022-08-19T02:34:49;20.00;95.40
63299;DHT22;54535;52.138;5.398;2022-08-19T02:37:16;19.90;95.50
63299;DHT22;54535;52.138;5.398;2022-08-19T02:40:01;19.90;95.40
63299;DHT22;54535;52.138;5.398;2022-08-19T02:42:28;19.90;95.30
63299;DHT22;54535;52.138;5.398;2022-08-19T02:44:55;19.90;95.40
63299;DHT22;54535;52.138;5.398;2022-08-19T02:47:22;19.90;95.40
63299;DHT22;54535;52.138;5.398;2022-08-19T02:49:49;19.80;95.60
63299;DHT22;54535;52.138;5.398;2022-08-19T02:52:18;19.80;95.70
63299;DHT22;54535;52.138;5.398;2022-08-19T02:54:45;19.80;95.80
63299;DHT22;54535;52.138;5.398;2022-08-19T02:57:12;19.70;95.80
63299;DHT22;54535;52.138;5.398;2022-08-19T02:59:38;19.70;95.70
63299;DHT22;54535;52.138;5.398;2022-08-19T03:02:06;19.70;95.60
63299;DHT22;54535;52.138;5.398;2022-08-19T03:04:32;19.70;95.60
63299;DHT22;54535;52.138;5.398;2022-08-19T03:06:59;19.70;95.50
63299;DHT22;54535;52.138;5.398;2022-08-19T03:09:37;19.70;95.60
63299;DHT22;54535;52.138;5.398;2022-08-19T03:12:03;19.60;95.60
63299;DHT22;54535;52.138;5.398;2022-08-19T03:14:31;19.70;95.70
63299;DHT22;54535;52.138;5.398;2022-08-19T03:16:58;19.60;95.70
63299;DHT22;54535;52.138;5.398;2022-08-19T03:19:25;19.60;95.70
63299;DHT22;54535;52.138;5.398;2022-08-19T03:21:51;19.60;95.60
63299;DHT22;54535;52.138;5.398;2022-08-19T03:24:19;19.60;95.70
63299;DHT22;54535;52.138;5.398;2022-08-19T03:26:50;19.60;95.70
63299;DHT22;54535;52.138;5.398;2022-08-19T03:29:18;19.60;95.80
63299;DHT22;54535;52.138;5.398;2022-08-19T03:31:56;19.50;95.80
63299;DHT22;54535;52.138;5.398;2022-08-19T03:34:24;19.50;95.80
63299;DHT22;54535;52.138;5.398;2022-08-19T03:36:53;19.50;95.80
63299;DHT22;54535;52.138;5.398;2022-08-19T03:39:21;19.50;95.80
63299;DHT22;54535;52.138;5.398;2022-08-19T03:41:48;19.50;95.80
63299;DHT22;54535;52.138;5.398;2022-08-19T03:44:36;19.50;95.90
63299;DHT22;54535;52.138;5.398;2022-08-19T03:47:04;19.50;95.90
63299;DHT22;54535;52.138;5.398;2022-08-19T03:49:32;19.50;95.80
63299;DHT22;54535;52.138;5.398;2022-08-19T03:51:59;19.40;95.90
63299;DHT22;54535;52.138;5.398;2022-08-19T03:54:31;19.40;95.70
63299;DHT22;54535;52.138;5.398;2022-08-19T03:56:58;19.40;95.70
63299;DHT22;54535;52.138;5.398;2022-08-19T03:59:29;19.40;95.70
63299;DHT22;54535;52.138;5.398;2022-08-19T04:01:57;19.40;95.80
63299;DHT22;54535;52.138;5.398;2022-08-19T04:04:24;19.30;95.80
63299;DHT22;54535;52.138;5.398;2022-08-19T04:06:54;19.30;95.80
63299;DHT22;54535;52.138;5.398;2022-08-19T04:09:21;19.30;95.80
63299;DHT22;54535;52.138;5.398;2022-08-19T04:11:49;19.30;95.80
63299;DHT22;54535;52.138;5.398;2022-08-19T04:14:18;19.30;95.90
63299;DHT22;54535;52.138;5.398;2022-08-19T04:16:45;19.30;95.90
63299;DHT22;54535;52.138;5.398;2022-08-19T04:19:13;19.20;95.90
63299;DHT22;54535;52.138;5.398;2022-08-19T04:21:39;19.20;95.90
63299;DHT22;54535;52.138;5.398;2022-08-19T04:24:06;19.20;95.90
63299;DHT22;54535;52.138;5.398;2022-08-19T04:26:34;19.20;95.90
63299;DHT22;54535;52.138;5.398;2022-08-19T04:29:03;19.20;95.90
63299;DHT22;54535;52.138;5.398;2022-08-19T04:31:34;19.10;95.90
63299;DHT22;54535;52.138;5.398;2022-08-19T04:34:05;19.10;96.00
63299;DHT22;54535;52.138;5.398;2022-08-19T04:36:34;19.10;96.00
63299;DHT22;54535;52.138;5.398;2022-08-19T04:39:03;19.10;96.00
63299;DHT22;54535;52.138;5.398;2022-08-19T04:41:30;19.00;95.90
63299;DHT22;54535;52.138;5.398;2022-08-19T04:44:16;19.00;95.90
63299;DHT22;54535;52.138;5.398;2022-08-19T04:46:45;19.00;96.30
63299;DHT22;54535;52.138;5.398;2022-08-19T04:49:18;19.00;96.50
63299;DHT22;54535;52.138;5.398;2022-08-19T04:51:46;18.90;96.20
63299;DHT22;54535;52.138;5.398;2022-08-19T04:54:14;18.90;96.40
63299;DHT22;54535;52.138;5.398;2022-08-19T04:56:51;18.90;96.40
63299;DHT22;54535;52.138;5.398;2022-08-19T04:59:19;19.00;96.30
63299;DHT22;54535;52.138;5.398;2022-08-19T05:01:46;18.90;96.30
63299;DHT22;54535;52.138;5.398;2022-08-19T05:04:19;18.90;96.30
63299;DHT22;54535;52.138;5.398;2022-08-19T05:06:47;19.00;96.40
63299;DHT22;54535;52.138;5.398;2022-08-19T05:09:14;19.00;96.40
63299;DHT22;54535;52.138;5.398;2022-08-19T05:11:42;19.00;96.40
63299;DHT22;54535;52.138;5.398;2022-08-19T05:14:10;19.00;96.30
63299;DHT22;54535;52.138;5.398;2022-08-19T05:16:39;19.00;96.40
63299;DHT22;54535;52.138;5.398;2022-08-19T05:19:05;19.00;96.40
63299;DHT22;54535;52.138;5.398;2022-08-19T05:21:51;19.00;96.30
63299;DHT22;54535;52.138;5.398;2022-08-19T05:24:36;18.90;96.30
63299;DHT22;54535;52.138;5.398;2022-08-19T05:27:23;18.90;96.50
63299;DHT22;54535;52.138;5.398;2022-08-19T05:29:50;18.90;96.70
63299;DHT22;54535;52.138;5.398;2022-08-19T05:32:16;18.90;96.60
63299;DHT22;54535;52.138;5.398;2022-08-19T05:34:43;18.90;96.60
63299;DHT22;54535;52.138;5.398;2022-08-19T05:37:10;19.00;96.70
63299;DHT22;54535;52.138;5.398;2022-08-19T05:39:37;19.00;96.90
63299;DHT22;54535;52.138;5.398;2022-08-19T05:42:05;19.00;97.80
63299;DHT22;54535;52.138;5.398;2022-08-19T05:44:34;19.00;98.00
63299;DHT22;54535;52.138;5.398;2022-08-19T05:47:03;18.90;97.70
63299;DHT22;54535;52.138;5.398;2022-08-19T05:49:31;18.90;97.70
63299;DHT22;54535;52.138;5.398;2022-08-19T05:51:58;19.00;97.90
63299;DHT22;54535;52.138;5.398;2022-08-19T05:54:25;19.00;98.20
63299;DHT22;54535;52.138;5.398;2022-08-19T05:56:53;19.00;98.40
63299;DHT22;54535;52.138;5.398;2022-08-19T05:59:20;19.00;98.40
63299;DHT22;54535;52.138;5.398;2022-08-19T06:01:51;19.10;98.40
63299;DHT22;54535;52.138;5.398;2022-08-19T06:04:18;19.20;98.70
63299;DHT22;54535;52.138;5.398;2022-08-19T06:06:46;19.20;98.90
63299;DHT22;54535;52.138;5.398;2022-08-19T06:09:13;19.20;99.10
63299;DHT22;54535;52.138;5.398;2022-08-19T06:11:41;19.20;99.00
63299;DHT22;54535;52.138;5.398;2022-08-19T06:14:14;19.10;99.30
63299;DHT22;54535;52.138;5.398;2022-08-19T06:16:42;19.10;99.30
63299;DHT22;54535;52.138;5.398;2022-08-19T06:19:11;19.10;99.20
63299;DHT22;54535;52.138;5.398;2022-08-19T06:21:39;19.20;99.80
63299;DHT22;54535;52.138;5.398;2022-08-19T06:24:08;19.20;99.80
63299;DHT22;54535;52.138;5.398;2022-08-19T06:26:36;19.20;99.40
63299;DHT22;54535;52.138;5.398;2022-08-19T06:29:04;19.30;99.40
63299;DHT22;54535;52.138;5.398;2022-08-19T06:31:33;19.30;99.90
63299;DHT22;54535;52.138;5.398;2022-08-19T06:34:00;19.30;99.50
63299;DHT22;54535;52.138;5.398;2022-08-19T06:38:58;19.40;99.90
63299;DHT22;54535;52.138;5.398;2022-08-19T06:41:25;19.40;99.60
63299;DHT22;54535;52.138;5.398;2022-08-19T06:43:53;19.50;99.90
63299;DHT22;54535;52.138;5.398;2022-08-19T06:46:22;19.50;99.90
63299;DHT22;54535;52.138;5.398;2022-08-19T06:48:49;19.50;99.90
63299;DHT22;54535;52.138;5.398;2022-08-19T06:51:16;19.60;99.90
63299;DHT22;54535;52.138;5.398;2022-08-19T06:53:45;19.60;99.90
63299;DHT22;54535;52.138;5.398;2022-08-19T06:56:15;19.70;99.90
63299;DHT22;54535;52.138;5.398;2022-08-19T06:58:42;19.70;99.90
63299;DHT22;54535;52.138;5.398;2022-08-19T07:01:09;19.80;99.90
63299;DHT22;54535;52.138;5.398;2022-08-19T07:03:36;19.80;99.90
63299;DHT22;54535;52.138;5.398;2022-08-19T07:06:03;19.80;99.90
63299;DHT22;54535;52.138;5.398;2022-08-19T07:08:35;19.60;99.90
63299;DHT22;54535;52.138;5.398;2022-08-19T07:11:06;19.60;99.90
63299;DHT22;54535;52.138;5.398;2022-08-19T07:13:37;19.60;99.90
63299;DHT22;54535;52.138;5.398;2022-08-19T07:16:04;19.70;99.90
63299;DHT22;54535;52.138;5.398;2022-08-19T07:18:32;19.80;99.90
63299;DHT22;54535;52.138;5.398;2022-08-19T07:23:34;19.70;99.90
63299;DHT22;54535;52.138;5.398;2022-08-19T07:28:53;19.70;99.90
63299;DHT22;54535;52.138;5.398;2022-08-19T07:31:22;19.70;99.90
63299;DHT22;54535;52.138;5.398;2022-08-19T07:33:50;19.60;99.90
63299;DHT22;54535;52.138;5.398;2022-08-19T07:36:21;19.60;99.90
63299;DHT22;54535;52.138;5.398;2022-08-19T07:38:51;19.70;99.90
63299;DHT22;54535;52.138;5.398;2022-08-19T07:41:21;19.80;99.90
63299;DHT22;54535;52.138;5.398;2022-08-19T07:43:49;19.80;99.90
63299;DHT22;54535;52.138;5.398;2022-08-19T07:46:16;19.80;99.90
63299;DHT22;54535;52.138;5.398;2022-08-19T07:48:44;20.00;99.90
63299;DHT22;54535;52.138;5.398;2022-08-19T07:51:14;20.10;99.90
63299;DHT22;54535;52.138;5.398;2022-08-19T07:54:01;20.20;99.90
63299;DHT22;54535;52.138;5.398;2022-08-19T07:56:28;20.20;99.90
63299;DHT22;54535;52.138;5.398;2022-08-19T07:58:54;20.30;99.90
63299;DHT22;54535;52.138;5.398;2022-08-19T08:01:24;20.30;99.90
63299;DHT22;54535;52.138;5.398;2022-08-19T08:03:51;20.30;99.90
63299;DHT22;54535;52.138;5.398;2022-08-19T08:06:37;20.30;99.90
63299;DHT22;54535;52.138;5.398;2022-08-19T08:09:24;20.40;99.80
63299;DHT22;54535;52.138;5.398;2022-08-19T08:11:56;20.50;99.60
63299;DHT22;54535;52.138;5.398;2022-08-19T08:14:29;20.60;99.00
63299;DHT22;54535;52.138;5.398;2022-08-19T08:17:00;20.50;99.20
63299;DHT22;54535;52.138;5.398;2022-08-19T08:19:27;20.60;99.30
63299;DHT22;54535;52.138;5.398;2022-08-19T08:21:58;20.70;99.10
63299;DHT22;54535;52.138;5.398;2022-08-19T08:24:25;20.80;99.10
63299;DHT22;54535;52.138;5.398;2022-08-19T08:26:54;20.90;98.80
63299;DHT22;54535;52.138;5.398;2022-08-19T08:29:23;21.00;98.60
63299;DHT22;54535;52.138;5.398;2022-08-19T08:31:51;21.00;98.20
63299;DHT22;54535;52.138;5.398;2022-08-19T08:34:25;20.90;98.10
63299;DHT22;54535;52.138;5.398;2022-08-19T08:36:51;20.80;98.10
63299;DHT22;54535;52.138;5.398;2022-08-19T08:39:19;20.90;98.00
63299;DHT22;54535;52.138;5.398;2022-08-19T08:44:52;21.00;97.80
63299;DHT22;54535;52.138;5.398;2022-08-19T08:47:12;21.10;97.80
63299;DHT22;54535;52.138;5.398;2022-08-19T08:49:43;21.20;97.30
63299;DHT22;54535;52.138;5.398;2022-08-19T08:54:47;21.50;97.40
63299;DHT22;54535;52.138;5.398;2022-08-19T08:57:26;21.60;96.60
63299;DHT22;54535;52.138;5.398;2022-08-19T08:59:59;21.80;97.10
63299;DHT22;54535;52.138;5.398;2022-08-19T09:02:27;21.90;96.70
63299;DHT22;54535;52.138;5.398;2022-08-19T09:04:54;22.00;96.60
63299;DHT22;54535;52.138;5.398;2022-08-19T09:07:38;22.00;95.50
63299;DHT22;54535;52.138;5.398;2022-08-19T09:10:10;22.00;95.50
63299;DHT22;54535;52.138;5.398;2022-08-19T09:12:48;22.00;95.70
63299;DHT22;54535;52.138;5.398;2022-08-19T09:15:25;22.10;95.50
63299;DHT22;54535;52.138;5.398;2022-08-19T09:18:00;22.10;95.50
63299;DHT22;54535;52.138;5.398;2022-08-19T09:20:28;22.20;95.50
63299;DHT22;54535;52.138;5.398;2022-08-19T09:22:55;22.10;95.40
63299;DHT22;54535;52.138;5.398;2022-08-19T09:25:21;22.20;95.60
63299;DHT22;54535;52.138;5.398;2022-08-19T09:27:52;22.30;95.60
63299;DHT22;54535;52.138;5.398;2022-08-19T09:30:21;22.40;95.10
63299;DHT22;54535;52.138;5.398;2022-08-19T09:32:50;22.50;95.30
63299;DHT22;54535;52.138;5.398;2022-08-19T09:35:23;22.70;95.10
63299;DHT22;54535;52.138;5.398;2022-08-19T09:37:50;22.70;94.40
63299;DHT22;54535;52.138;5.398;2022-08-19T09:40:24;22.80;94.90
63299;DHT22;54535;52.138;5.398;2022-08-19T09:42:52;22.90;94.60
63299;DHT22;54535;52.138;5.398;2022-08-19T09:45:19;23.00;94.60
63299;DHT22;54535;52.138;5.398;2022-08-19T09:47:50;23.10;94.20
63299;DHT22;54535;52.138;5.398;2022-08-19T09:50:20;23.10;93.70
63299;DHT22;54535;52.138;5.398;2022-08-19T09:52:46;23.10;92.70
63299;DHT22;54535;52.138;5.398;2022-08-19T09:55:21;23.10;93.50
63299;DHT22;54535;52.138;5.398;2022-08-19T09:57:49;23.30;93.40
63299;DHT22;54535;52.138;5.398;2022-08-19T10:00:16;23.40;92.80
63299;DHT22;54535;52.138;5.398;2022-08-19T10:02:42;23.40;92.70
63299;DHT22;54535;52.138;5.398;2022-08-19T10:05:11;23.40;93.00
63299;DHT22;54535;52.138;5.398;2022-08-19T10:07:56;23.40;92.90
63299;DHT22;54535;52.138;5.398;2022-08-19T10:10:23;23.50;92.20
63299;DHT22;54535;52.138;5.398;2022-08-19T10:12:50;23.50;92.50
63299;DHT22;54535;52.138;5.398;2022-08-19T10:15:18;23.50;91.40
63299;DHT22;54535;52.138;5.398;2022-08-19T10:17:55;23.40;91.30
63299;DHT22;54535;52.138;5.398;2022-08-19T10:20:24;23.30;91.30
63299;DHT22;54535;52.138;5.398;2022-08-19T10:22:51;23.40;91.50
63299;DHT22;54535;52.138;5.398;2022-08-19T10:25:18;23.50;91.70
63299;DHT22;54535;52.138;5.398;2022-08-19T10:27:45;23.70;91.30
63299;DHT22;54535;52.138;5.398;2022-08-19T10:30:21;23.90;91.70
63299;DHT22;54535;52.138;5.398;2022-08-19T10:32:50;24.00;90.70
63299;DHT22;54535;52.138;5.398;2022-08-19T10:35:17;24.00;91.00
63299;DHT22;54535;52.138;5.398;2022-08-19T10:37:47;24.00;91.00
63299;DHT22;54535;52.138;5.398;2022-08-19T10:40:23;24.10;90.60
63299;DHT22;54535;52.138;5.398;2022-08-19T10:42:50;24.10;91.00
63299;DHT22;54535;52.138;5.398;2022-08-19T10:45:16;24.10;90.60
63299;DHT22;54535;52.138;5.398;2022-08-19T10:47:43;24.20;91.20
63299;DHT22;54535;52.138;5.398;2022-08-19T10:50:10;24.40;90.60
63299;DHT22;54535;52.138;5.398;2022-08-19T10:52:55;24.50;90.50
63299;DHT22;54535;52.138;5.398;2022-08-19T10:55:23;24.50;90.40
63299;DHT22;54535;52.138;5.398;2022-08-19T10:58:12;24.50;91.10
63299;DHT22;54535;52.138;5.398;2022-08-19T11:00:39;24.60;90.20
63299;DHT22;54535;52.138;5.398;2022-08-19T11:03:06;24.40;90.50
63299;DHT22;54535;52.138;5.398;2022-08-19T11:05:35;24.30;90.40
63299;DHT22;54535;52.138;5.398;2022-08-19T11:08:06;24.40;90.80
63299;DHT22;54535;52.138;5.398;2022-08-19T11:10:49;24.50;90.90
63299;DHT22;54535;52.138;5.398;2022-08-19T11:13:16;24.60;91.30
63299;DHT22;54535;52.138;5.398;2022-08-19T11:15:42;24.70;90.80
63299;DHT22;54535;52.138;5.398;2022-08-19T11:18:09;24.90;90.50
63299;DHT22;54535;52.138;5.398;2022-08-19T11:20:39;25.00;90.70
63299;DHT22;54535;52.138;5.398;2022-08-19T11:23:05;25.00;90.40
63299;DHT22;54535;52.138;5.398;2022-08-19T11:25:32;25.00;90.50
63299;DHT22;54535;52.138;5.398;2022-08-19T11:27:59;24.90;89.80
63299;DHT22;54535;52.138;5.398;2022-08-19T11:30:26;24.80;90.10
63299;DHT22;54535;52.138;5.398;2022-08-19T11:32:54;24.90;90.30
63299;DHT22;54535;52.138;5.398;2022-08-19T11:35:20;25.10;90.00
63299;DHT22;54535;52.138;5.398;2022-08-19T11:37:49;25.20;90.20
63299;DHT22;54535;52.138;5.398;2022-08-19T11:40:16;25.30;90.20
63299;DHT22;54535;52.138;5.398;2022-08-19T11:42:43;25.40;90.10
63299;DHT22;54535;52.138;5.398;2022-08-19T11:45:22;25.60;90.40
63299;DHT22;54535;52.138;5.398;2022-08-19T11:47:49;25.80;90.00
63299;DHT22;54535;52.138;5.398;2022-08-19T11:50:16;25.90;86.70
63299;DHT22;54535;52.138;5.398;2022-08-19T11:52:43;26.00;88.70
63299;DHT22;54535;52.138;5.398;2022-08-19T11:55:12;26.10;87.00
63299;DHT22;54535;52.138;5.398;2022-08-19T11:57:39;26.00;87.00
63299;DHT22;54535;52.138;5.398;2022-08-19T12:00:08;26.10;88.30
63299;DHT22;54535;52.138;5.398;2022-08-19T12:02:37;26.30;87.20
63299;DHT22;54535;52.138;5.398;2022-08-19T12:05:04;26.40;87.20
63299;DHT22;54535;52.138;5.398;2022-08-19T12:07:37;26.30;85.90
63299;DHT22;54535;52.138;5.398;2022-08-19T12:10:05;26.00;85.80
63299;DHT22;54535;52.138;5.398;2022-08-19T12:12:31;25.80;86.60
63299;DHT22;54535;52.138;5.398;2022-08-19T12:14:58;25.70;87.50
63299;DHT22;54535;52.138;5.398;2022-08-19T12:17:25;25.40;88.20
63299;DHT22;54535;52.138;5.398;2022-08-19T12:19:53;25.20;88.90
63299;DHT22;54535;52.138;5.398;2022-08-19T12:22:19;25.10;89.80
63299;DHT22;54535;52.138;5.398;2022-08-19T12:24:47;24.90;90.50
63299;DHT22;54535;52.138;5.398;2022-08-19T12:27:14;24.70;90.50
63299;DHT22;54535;52.138;5.398;2022-08-19T12:29:57;24.70;90.60
63299;DHT22;54535;52.138;5.398;2022-08-19T12:32:26;24.60;91.00
63299;DHT22;54535;52.138;5.398;2022-08-19T12:34:53;24.50;90.90
63299;DHT22;54535;52.138;5.398;2022-08-19T12:37:20;24.40;91.40
63299;DHT22;54535;52.138;5.398;2022-08-19T12:39:47;24.40;91.80
63299;DHT22;54535;52.138;5.398;2022-08-19T12:42:14;24.30;92.10
63299;DHT22;54535;52.138;5.398;2022-08-19T12:44:41;24.20;92.10
63299;DHT22;54535;52.138;5.398;2022-08-19T12:47:09;24.30;92.30
63299;DHT22;54535;52.138;5.398;2022-08-19T12:49:37;24.40;92.40
63299;DHT22;54535;52.138;5.398;2022-08-19T12:52:24;24.40;92.40
63299;DHT22;54535;52.138;5.398;2022-08-19T12:54:52;24.60;92.50
63299;DHT22;54535;52.138;5.398;2022-08-19T12:57:21;24.80;92.50
63299;DHT22;54535;52.138;5.398;2022-08-19T12:59:57;25.00;92.30
63299;DHT22;54535;52.138;5.398;2022-08-19T13:02:24;25.20;92.00
63299;DHT22;54535;52.138;5.398;2022-08-19T13:04:51;25.40;91.90
63299;DHT22;54535;52.138;5.398;2022-08-19T13:07:17;25.60;91.80
63299;DHT22;54535;52.138;5.398;2022-08-19T13:09:44;25.70;91.40
63299;DHT22;54535;52.138;5.398;2022-08-19T13:12:11;25.60;90.90
63299;DHT22;54535;52.138;5.398;2022-08-19T13:14:39;25.60;90.90
63299;DHT22;54535;52.138;5.398;2022-08-19T13:17:07;25.50;90.90
63299;DHT22;54535;52.138;5.398;2022-08-19T13:19:36;25.40;91.00
63299;DHT22;54535;52.138;5.398;2022-08-19T13:22:03;25.40;91.10
63299;DHT22;54535;52.138;5.398;2022-08-19T13:24:35;25.30;91.20
63299;DHT22;54535;52.138;5.398;2022-08-19T13:27:03;25.20;91.50
63299;DHT22;54535;52.138;5.398;2022-08-19T13:29:29;25.00;92.00
63299;DHT22;54535;52.138;5.398;2022-08-19T13:32:15;24.90;92.30
63299;DHT22;54535;52.138;5.398;2022-08-19T13:35:01;24.80;92.50
63299;DHT22;54535;52.138;5.398;2022-08-19T13:37:28;24.70;93.00
63299;DHT22;54535;52.138;5.398;2022-08-19T13:40:12;24.60;93.20
63299;DHT22;54535;52.138;5.398;2022-08-19T13:42:43;24.50;93.40
63299;DHT22;54535;52.138;5.398;2022-08-19T13:45:10;24.40;93.70
63299;DHT22;54535;52.138;5.398;2022-08-19T13:47:37;24.30;93.90
63299;DHT22;54535;52.138;5.398;2022-08-19T13:50:11;24.30;94.10
63299;DHT22;54535;52.138;5.398;2022-08-19T13:52:39;24.20;94.30
63299;DHT22;54535;52.138;5.398;2022-08-19T13:55:06;24.20;94.60
63299;DHT22;54535;52.138;5.398;2022-08-19T13:57:32;24.10;94.80
63299;DHT22;54535;52.138;5.398;2022-08-19T13:59:59;24.10;95.30
63299;DHT22;54535;52.138;5.398;2022-08-19T14:02:26;24.10;95.10
63299;DHT22;54535;52.138;5.398;2022-08-19T14:04:53;24.00;95.30
63299;DHT22;54535;52.138;5.398;2022-08-19T14:07:20;23.90;96.20
63299;DHT22;54535;52.138;5.398;2022-08-19T14:09:50;23.90;96.00
63299;DHT22;54535;52.138;5.398;2022-08-19T14:12:20;23.70;96.10
63299;DHT22;54535;52.138;5.398;2022-08-19T14:14:54;23.80;96.30
63299;DHT22;54535;52.138;5.398;2022-08-19T14:17:21;23.80;96.20
63299;DHT22;54535;52.138;5.398;2022-08-19T14:19:48;23.80;96.30
63299;DHT22;54535;52.138;5.398;2022-08-19T14:22:15;23.80;96.50
63299;DHT22;54535;52.138;5.398;2022-08-19T14:24:48;23.80;97.60
63299;DHT22;54535;52.138;5.398;2022-08-19T14:27:14;23.40;97.40
63299;DHT22;54535;52.138;5.398;2022-08-19T14:29:41;23.20;98.80
63299;DHT22;54535;52.138;5.398;2022-08-19T14:32:08;23.00;98.40
63299;DHT22;54535;52.138;5.398;2022-08-19T14:34:42;22.70;98.70
63299;DHT22;54535;52.138;5.398;2022-08-19T14:37:08;22.60;99.10
63299;DHT22;54535;52.138;5.398;2022-08-19T14:39:40;22.70;99.00
63299;DHT22;54535;52.138;5.398;2022-08-19T14:42:08;22.70;99.30
63299;DHT22;54535;52.138;5.398;2022-08-19T14:44:37;22.60;99.80
63299;DHT22;54535;52.138;5.398;2022-08-19T14:47:03;22.70;99.90
63299;DHT22;54535;52.138;5.398;2022-08-19T14:49:30;22.80;99.90
63299;DHT22;54535;52.138;5.398;2022-08-19T14:52:01;22.80;99.90
63299;DHT22;54535;52.138;5.398;2022-08-19T14:54:29;22.80;99.90
63299;DHT22;54535;52.138;5.398;2022-08-19T14:56:56;22.80;99.90
63299;DHT22;54535;52.138;5.398;2022-08-19T14:59:23;22.90;99.90
63299;DHT22;54535;52.138;5.398;2022-08-19T15:01:49;23.20;99.90
63299;DHT22;54535;52.138;5.398;2022-08-19T15:04:16;23.30;99.90
63299;DHT22;54535;52.138;5.398;2022-08-19T15:06:43;23.30;99.90
63299;DHT22;54535;52.138;5.398;2022-08-19T15:09:10;23.20;99.90
63299;DHT22;54535;52.138;5.398;2022-08-19T15:11:36;23.30;99.90
63299;DHT22;54535;52.138;5.398;2022-08-19T15:14:04;23.50;99.90
63299;DHT22;54535;52.138;5.398;2022-08-19T15:16:35;23.60;99.90
63299;DHT22;54535;52.138;5.398;2022-08-19T15:19:02;23.80;99.80
63299;DHT22;54535;52.138;5.398;2022-08-19T15:21:28;23.90;99.00
63299;DHT22;54535;52.138;5.398;2022-08-19T15:23:56;24.10;99.10
63299;DHT22;54535;52.138;5.398;2022-08-19T15:26:23;24.50;98.70
63299;DHT22;54535;52.138;5.398;2022-08-19T15:28:52;25.20;97.70
63299;DHT22;54535;52.138;5.398;2022-08-19T15:31:20;25.70;96.20
63299;DHT22;54535;52.138;5.398;2022-08-19T15:33:55;26.20;96.40
63299;DHT22;54535;52.138;5.398;2022-08-19T15:36:23;27.30;96.50
63299;DHT22;54535;52.138;5.398;2022-08-19T15:38:51;27.90;95.60
63299;DHT22;54535;52.138;5.398;2022-08-19T15:41:23;28.20;93.40
63299;DHT22;54535;52.138;5.398;2022-08-19T15:43:55;27.80;92.30
63299;DHT22;54535;52.138;5.398;2022-08-19T15:46:23;27.70;92.30
63299;DHT22;54535;52.138;5.398;2022-08-19T15:48:51;27.40;91.90
63299;DHT22;54535;52.138;5.398;2022-08-19T15:51:26;27.20;92.10
63299;DHT22;54535;52.138;5.398;2022-08-19T15:53:53;26.80;92.30
63299;DHT22;54535;52.138;5.398;2022-08-19T15:56:20;26.50;92.90